createdAt,value
2018-04-28T00:00:57.715Z,52.20
2018-04-28T00:03:25.256Z,52.40
2018-04-28T00:05:52.826Z,52.00
2018-04-28T00:08:34.624Z,51.20
2018-04-28T00:11:02.190Z,51.10
2018-04-28T00:13:29.730Z,52.50
2018-04-28T00:15:57.300Z,54.00
2018-04-28T00:18:24.848Z,52.40
2018-04-28T00:20:52.413Z,51.80
2018-04-28T00:23:19.952Z,49.40
2018-04-28T00:25:49.205Z,51.10
2018-04-28T00:28:25.437Z,50.80
2018-04-28T00:31:04.448Z,53.60
2018-04-28T00:33:31.994Z,51.10
2018-04-28T00:36:04.475Z,53.00
2018-04-28T00:38:32.025Z,50.80
2018-04-28T00:40:59.605Z,52.30
2018-04-28T00:43:28.029Z,51.80
2018-04-28T00:46:06.291Z,52.00
2018-04-28T00:48:34.340Z,49.90
2018-04-28T00:51:03.606Z,50.10
2018-04-28T00:53:31.185Z,52.40
2018-04-28T00:56:05.286Z,52.90
2018-04-28T01:01:42.716Z,52.30
2018-04-28T01:04:15.089Z,51.00
2018-04-28T01:06:44.470Z,50.30
2018-04-28T01:09:12.780Z,49.90
2018-04-28T01:11:41.108Z,52.10
2018-04-28T01:14:12.457Z,50.80
2018-04-28T01:16:50.696Z,49.90
2018-04-28T01:19:25.716Z,53.90
2018-04-28T01:21:54.072Z,53.80
2018-04-28T01:24:40.220Z,54.30
2018-04-28T01:27:33.281Z,52.30
2018-04-28T01:30:16.497Z,54.60
2018-04-28T01:39:28.270Z,54.50
2018-04-28T01:42:16.352Z,52.60
2018-04-28T01:44:49.731Z,55.50
2018-04-28T01:47:22.909Z,53.30
2018-04-28T01:49:57.173Z,56.40
2018-04-28T01:52:33.014Z,52.90
2018-04-28T01:55:04.454Z,54.60
2018-04-28T01:57:42.860Z,53.00
2018-04-28T02:00:37.041Z,53.80
2018-04-28T02:03:09.197Z,54.90
2018-04-28T02:05:44.208Z,50.70
2018-04-28T02:08:13.613Z,53.10
2018-04-28T02:10:56.037Z,53.50
2018-04-28T02:13:43.088Z,52.40
2018-04-28T02:16:20.235Z,52.90
2018-04-28T02:18:49.604Z,53.30
2018-04-28T02:21:24.968Z,51.70
2018-04-28T02:24:18.260Z,53.20
2018-04-28T02:26:47.404Z,52.60
2018-04-28T02:29:17.466Z,52.80
2018-04-28T02:31:47.556Z,55.90
2018-04-28T02:34:19.349Z,56.30
2018-04-28T02:36:47.658Z,54.90
2018-04-28T02:39:16.105Z,54.20
2018-04-28T02:41:49.846Z,57.70
2018-04-28T02:44:32.937Z,57.60
2018-04-28T02:47:11.493Z,53.90
2018-04-28T02:49:53.161Z,53.80
2018-04-28T02:52:34.116Z,53.80
2018-04-28T02:55:04.206Z,53.90
2018-04-28T02:57:31.752Z,53.80
2018-04-28T03:00:01.053Z,57.30
2018-04-28T03:02:29.385Z,54.80
2018-04-28T03:08:09.281Z,58.60
2018-04-28T03:10:54.907Z,53.50
2018-04-28T03:13:26.573Z,54.00
2018-04-28T03:15:58.772Z,54.90
2018-04-28T03:18:41.224Z,56.90
2018-04-28T03:21:08.764Z,54.90
2018-04-28T03:23:36.311Z,55.60
2018-04-28T03:26:07.812Z,53.50
2018-04-28T03:28:36.117Z,60.40
2018-04-28T03:31:08.169Z,60.30
2018-04-28T03:36:50.870Z,56.10
2018-04-28T03:39:20.017Z,57.90
2018-04-28T03:41:48.325Z,54.00
2018-04-28T03:44:30.672Z,57.00
2018-04-28T03:47:08.790Z,56.40
2018-04-28T03:49:37.066Z,54.90
2018-04-28T03:52:17.188Z,54.90
2018-04-28T03:54:46.580Z,56.20
2018-04-28T03:57:34.828Z,56.20
2018-04-28T04:00:14.898Z,57.90
2018-04-28T04:02:54.934Z,56.70
2018-04-28T04:05:31.446Z,56.60
2018-04-28T04:07:59.879Z,53.10
2018-04-28T04:10:34.679Z,52.80
2018-04-28T04:13:17.765Z,57.00
2018-04-28T04:15:55.909Z,56.30
2018-04-28T04:21:31.846Z,54.80
2018-04-28T04:24:21.008Z,55.50
2018-04-28T04:30:04.956Z,53.40
2018-04-28T04:32:33.289Z,54.20
2018-04-28T04:38:02.279Z,56.90
2018-04-28T04:40:55.507Z,59.50
2018-04-28T04:43:41.452Z,57.40
2018-04-28T04:46:28.513Z,56.40
2018-04-28T04:49:19.628Z,56.90
2018-04-28T04:52:02.957Z,55.90
2018-04-28T04:54:37.012Z,58.10
2018-04-28T04:57:13.188Z,59.30
2018-04-28T05:03:12.852Z,56.90
2018-04-28T05:06:04.840Z,56.10
2018-04-28T05:09:04.834Z,56.10
2018-04-28T05:11:55.691Z,56.00
2018-04-28T05:17:22.789Z,58.30
2018-04-28T05:20:02.213Z,59.40
2018-04-28T05:26:00.989Z,57.70
2018-04-28T05:28:41.104Z,61.10
2018-04-28T05:34:19.585Z,60.20
2018-04-28T05:36:52.166Z,60.20
2018-04-28T05:39:38.028Z,62.20
2018-04-28T05:42:22.963Z,66.90
2018-04-28T05:44:58.774Z,62.10
2018-04-28T05:47:42.146Z,64.60
2018-04-28T05:50:30.788Z,61.40
2018-04-28T05:53:11.016Z,58.30
2018-04-28T05:55:53.096Z,58.70
2018-04-28T05:58:30.449Z,57.90
2018-04-28T06:01:20.732Z,57.00
2018-04-28T06:04:09.251Z,55.90
2018-04-28T06:06:49.003Z,54.70
2018-04-28T06:09:27.693Z,54.30
2018-04-28T06:15:09.553Z,53.30
2018-04-28T06:17:49.477Z,52.30
2018-04-28T06:20:29.763Z,52.70
2018-04-28T06:22:57.556Z,52.10
2018-04-28T06:25:25.334Z,52.90
2018-04-28T06:27:54.592Z,53.00
2018-04-28T06:30:23.987Z,52.90
2018-04-28T06:32:53.594Z,51.30
2018-04-28T06:35:21.506Z,50.40
2018-04-28T06:37:49.077Z,49.00
2018-04-28T06:40:20.691Z,49.10
2018-04-28T06:42:49.275Z,47.80
2018-04-28T06:45:18.087Z,47.70
2018-04-28T06:47:47.614Z,47.20
2018-04-28T06:50:18.131Z,46.20
2018-04-28T06:52:45.908Z,43.70
2018-04-28T06:55:13.473Z,44.20
2018-04-28T06:57:41.784Z,44.10
2018-04-28T07:00:09.354Z,43.80
2018-04-28T07:02:36.909Z,42.40
2018-04-28T07:05:04.484Z,42.90
2018-04-28T07:07:32.034Z,46.20
2018-04-28T07:09:59.612Z,41.50
2018-04-28T07:12:27.413Z,43.70
2018-04-28T07:14:55.649Z,41.50
2018-04-28T07:17:23.200Z,42.20
2018-04-28T07:19:50.773Z,42.00
2018-04-28T07:22:18.321Z,42.60
2018-04-28T07:24:45.892Z,42.00
2018-04-28T07:27:13.450Z,40.70
2018-04-28T07:29:41.028Z,41.10
2018-04-28T07:32:08.573Z,41.90
2018-04-28T07:34:36.145Z,39.30
2018-04-28T07:37:04.460Z,39.50
2018-04-28T07:39:32.032Z,39.20
2018-04-28T07:42:00.301Z,42.10
2018-04-28T07:44:28.691Z,39.30
2018-04-28T07:46:56.945Z,39.30
2018-04-28T07:49:24.513Z,38.90
2018-04-28T07:51:52.236Z,39.20
2018-04-28T07:54:19.780Z,40.60
2018-04-28T07:56:48.723Z,39.50
2018-04-28T07:59:16.264Z,39.70
2018-04-28T08:01:43.833Z,39.70
2018-04-28T08:04:11.377Z,41.70
2018-04-28T08:06:38.950Z,42.40
2018-04-28T08:09:06.506Z,41.30
2018-04-28T08:11:34.072Z,41.40
2018-04-28T08:14:01.616Z,42.10
2018-04-28T08:16:29.193Z,41.50
2018-04-28T08:18:56.753Z,43.40
2018-04-28T08:21:24.321Z,42.40
2018-04-28T08:23:51.888Z,40.50
2018-04-28T08:26:20.040Z,42.30
2018-04-28T08:28:47.592Z,39.80
2018-04-28T08:31:15.665Z,41.00
2018-04-28T08:33:43.243Z,38.60
2018-04-28T08:36:10.818Z,39.70
2018-04-28T08:38:38.369Z,40.20
2018-04-28T08:41:05.975Z,38.60
2018-04-28T08:43:33.717Z,38.90
2018-04-28T08:46:01.322Z,37.20
2018-04-28T08:48:28.865Z,35.40
2018-04-28T08:50:56.430Z,35.90
2018-04-28T08:53:23.979Z,37.70
2018-04-28T08:55:51.544Z,36.10
2018-04-28T08:58:19.084Z,36.40
2018-04-28T09:01:03.481Z,35.70
2018-04-28T09:03:31.027Z,37.10
2018-04-28T09:05:58.597Z,34.80
2018-04-28T09:08:26.138Z,36.70
2018-04-28T09:10:53.709Z,38.30
2018-04-28T09:13:21.284Z,36.60
2018-04-28T09:15:49.830Z,38.30
2018-04-28T09:18:17.596Z,38.90
2018-04-28T09:20:45.484Z,37.60
2018-04-28T09:23:13.030Z,37.90
2018-04-28T09:25:40.597Z,38.40
2018-04-28T09:28:08.143Z,38.60
2018-04-28T09:30:35.708Z,38.00
2018-04-28T09:33:03.355Z,39.10
2018-04-28T09:35:30.824Z,38.00
2018-04-28T09:37:58.398Z,38.60
2018-04-28T09:40:25.943Z,38.90
2018-04-28T09:42:55.879Z,39.10
2018-04-28T09:45:23.428Z,38.60
2018-04-28T09:47:51.007Z,39.40
2018-04-28T09:50:18.556Z,38.90
2018-04-28T09:52:46.124Z,39.30
2018-04-28T09:55:13.670Z,40.30
2018-04-28T09:57:41.241Z,39.80
2018-04-28T10:00:23.548Z,39.30
2018-04-28T10:02:51.122Z,40.10
2018-04-28T10:05:18.679Z,39.50
2018-04-28T10:07:46.264Z,39.70
2018-04-28T10:10:14.572Z,40.90
2018-04-28T10:12:42.194Z,40.80
2018-04-28T10:15:09.701Z,40.40
2018-04-28T10:17:37.419Z,40.70
2018-04-28T10:20:04.991Z,40.80
2018-04-28T10:22:32.912Z,41.60
2018-04-28T10:25:02.012Z,41.00
2018-04-28T10:27:29.589Z,41.10
2018-04-28T10:29:57.135Z,41.30
2018-04-28T10:32:24.708Z,41.20
2018-04-28T10:34:52.278Z,41.50
2018-04-28T10:37:19.844Z,41.30
2018-04-28T10:39:47.389Z,41.60
2018-04-28T10:42:15.727Z,41.30
2018-04-28T10:44:43.269Z,41.30
2018-04-28T10:47:10.884Z,41.50
2018-04-28T10:49:39.207Z,41.70
2018-04-28T10:52:07.633Z,41.60
2018-04-28T10:54:35.216Z,41.80
2018-04-28T10:57:03.769Z,41.60
2018-04-28T10:59:32.089Z,42.10
2018-04-28T11:02:00.642Z,42.00
2018-04-28T11:04:28.781Z,41.70
2018-04-28T11:06:56.743Z,42.10
2018-04-28T11:09:24.319Z,42.80
2018-04-28T11:11:51.887Z,42.60
2018-04-28T11:14:20.191Z,41.90
2018-04-28T11:16:47.769Z,41.90
2018-04-28T11:19:15.322Z,41.60
2018-04-28T11:21:42.900Z,41.20
2018-04-28T11:24:10.448Z,41.30
2018-04-28T11:26:37.993Z,41.60
2018-04-28T11:29:05.612Z,41.60
2018-04-28T11:31:33.924Z,42.10
2018-04-28T11:34:01.501Z,41.80
2018-04-28T11:36:29.052Z,41.70
2018-04-28T11:38:56.670Z,41.40
2018-04-28T11:41:24.976Z,41.50
2018-04-28T11:43:52.548Z,41.50
2018-04-28T11:46:20.096Z,41.40
2018-04-28T11:48:47.666Z,41.30
2018-04-28T11:51:15.217Z,41.00
2018-04-28T11:53:42.787Z,40.30
2018-04-28T11:56:10.342Z,40.70
2018-04-28T11:58:37.920Z,41.10
2018-04-28T12:01:05.465Z,40.80
2018-04-28T12:03:33.028Z,40.70
2018-04-28T12:06:00.576Z,41.70
2018-04-28T12:08:28.153Z,41.60
2018-04-28T12:10:56.461Z,41.30
2018-04-28T12:13:24.053Z,41.30
2018-04-28T12:15:51.600Z,42.40
2018-04-28T12:18:19.941Z,42.00
2018-04-28T12:20:47.489Z,42.00
2018-04-28T12:23:15.056Z,41.80
2018-04-28T12:25:43.116Z,41.60
2018-04-28T12:28:10.689Z,41.60
2018-04-28T12:30:38.236Z,41.50
2018-04-28T12:33:05.813Z,42.20
2018-04-28T12:35:33.356Z,41.70
2018-04-28T12:38:00.933Z,40.50
2018-04-28T12:40:28.481Z,41.70
2018-04-28T12:42:56.049Z,41.00
2018-04-28T12:45:23.601Z,41.60
2018-04-28T12:47:51.172Z,41.60
2018-04-28T12:50:18.712Z,41.50
2018-04-28T12:52:46.285Z,41.20
2018-04-28T12:55:13.836Z,41.20
2018-04-28T12:57:41.404Z,41.60
2018-04-28T13:00:08.948Z,41.20
2018-04-28T13:02:36.528Z,41.40
2018-04-28T13:05:04.189Z,40.60
2018-04-28T13:07:32.497Z,41.40
2018-04-28T13:10:00.073Z,41.40
2018-04-28T13:12:27.618Z,40.80
2018-04-28T13:14:55.195Z,41.60
2018-04-28T13:17:22.740Z,41.50
2018-04-28T13:19:50.325Z,41.80
2018-04-28T13:22:17.868Z,42.00
2018-04-28T13:24:45.432Z,41.80
2018-04-28T13:27:12.974Z,42.00
2018-04-28T13:29:40.541Z,41.80
2018-04-28T13:32:08.081Z,41.10
2018-04-28T13:34:35.650Z,41.00
2018-04-28T13:37:03.196Z,41.80
2018-04-28T13:39:30.766Z,41.20
2018-04-28T13:41:58.309Z,41.80
2018-04-28T13:44:25.893Z,41.60
2018-04-28T13:46:53.435Z,41.50
2018-04-28T13:49:21.004Z,41.50
2018-04-28T13:51:48.548Z,41.50
2018-04-28T13:54:16.118Z,41.20
2018-04-28T13:56:43.669Z,41.60
2018-04-28T13:59:11.235Z,41.80
2018-04-28T14:01:38.776Z,42.00
2018-04-28T14:04:06.345Z,41.60
2018-04-28T14:06:33.888Z,41.90
2018-04-28T14:09:02.229Z,42.10
2018-04-28T14:11:29.781Z,42.10
2018-04-28T14:13:57.467Z,41.80
2018-04-28T14:16:25.013Z,42.10
2018-04-28T14:18:53.557Z,41.80
2018-04-28T14:21:21.101Z,41.30
2018-04-28T14:23:48.669Z,41.30
2018-04-28T14:26:16.214Z,41.70
2018-04-28T14:28:43.797Z,41.50
2018-04-28T14:31:11.341Z,42.20
2018-04-28T14:33:38.885Z,40.90
2018-04-28T14:36:06.460Z,40.80
2018-04-28T14:38:34.004Z,40.90
2018-04-28T14:41:01.568Z,40.80
2018-04-28T14:43:29.116Z,40.80
2018-04-28T14:45:56.685Z,40.00
2018-04-28T14:48:24.224Z,40.90
2018-04-28T14:50:51.788Z,40.20
2018-04-28T14:53:20.813Z,40.00
2018-04-28T14:55:48.385Z,40.00
2018-04-28T14:58:16.422Z,40.60
2018-04-28T15:00:43.920Z,41.10
2018-04-28T15:03:12.225Z,41.30
2018-04-28T15:05:39.796Z,41.10
2018-04-28T15:08:07.653Z,41.00
2018-04-28T15:10:35.998Z,40.60
2018-04-28T15:13:03.545Z,40.50
2018-04-28T15:15:31.117Z,40.40
2018-04-28T15:17:58.660Z,40.50
2018-04-28T15:20:26.224Z,41.10
2018-04-28T15:22:53.850Z,41.20
2018-04-28T15:25:21.433Z,41.40
2018-04-28T15:27:48.985Z,40.80
2018-04-28T15:30:16.555Z,41.30
2018-04-28T15:32:44.096Z,41.40
2018-04-28T15:35:11.797Z,41.30
2018-04-28T15:37:39.337Z,39.80
2018-04-28T15:40:06.958Z,41.20
2018-04-28T15:42:34.528Z,40.70
2018-04-28T15:45:02.100Z,40.30
2018-04-28T15:47:29.648Z,40.50
2018-04-28T15:49:57.301Z,40.20
2018-04-28T15:52:24.784Z,40.00
2018-04-28T15:54:52.353Z,40.70
2018-04-28T15:57:20.100Z,41.00
2018-04-28T15:59:47.664Z,40.50
2018-04-28T16:02:15.211Z,40.80
2018-04-28T16:04:42.780Z,40.90
2018-04-28T16:07:10.340Z,40.80
2018-04-28T16:09:37.890Z,41.10
2018-04-28T16:12:05.456Z,40.60
2018-04-28T16:14:33.009Z,40.10
2018-04-28T16:17:00.575Z,40.30
2018-04-28T16:19:28.133Z,40.90
2018-04-28T16:21:55.756Z,40.70
2018-04-28T16:24:23.296Z,40.50
2018-04-28T16:26:50.860Z,38.60
2018-04-28T16:29:19.199Z,39.00
2018-04-28T16:31:46.764Z,39.00
2018-04-28T16:34:14.304Z,38.30
2018-04-28T16:36:41.868Z,38.90
2018-04-28T16:39:09.410Z,39.30
2018-04-28T16:41:36.977Z,39.90
2018-04-28T16:44:04.517Z,39.60
2018-04-28T16:46:32.365Z,39.70
2018-04-28T16:49:00.681Z,39.30
2018-04-28T16:51:28.247Z,39.30
2018-04-28T16:53:55.864Z,39.30
2018-04-28T16:56:23.433Z,39.90
2018-04-28T16:58:50.980Z,39.60
2018-04-28T17:01:18.553Z,40.30
2018-04-28T17:03:46.100Z,40.40
2018-04-28T17:06:14.431Z,40.10
2018-04-28T17:08:41.976Z,40.00
2018-04-28T17:11:09.557Z,40.40
2018-04-28T17:13:37.182Z,40.20
2018-04-28T17:16:04.745Z,39.50
2018-04-28T17:18:32.289Z,38.30
2018-04-28T17:20:59.859Z,37.30
2018-04-28T17:23:27.403Z,38.70
2018-04-28T17:25:54.974Z,37.50
2018-04-28T17:28:22.559Z,38.20
2018-04-28T17:30:50.168Z,38.90
2018-04-28T17:33:17.717Z,38.40
2018-04-28T17:35:46.050Z,37.60
2018-04-28T17:38:13.593Z,37.50
2018-04-28T17:40:41.173Z,37.30
2018-04-28T17:43:08.807Z,38.70
2018-04-28T17:45:36.351Z,39.30
2018-04-28T17:48:03.925Z,39.60
2018-04-28T17:50:31.473Z,39.40
2018-04-28T17:52:59.052Z,39.60
2018-04-28T17:55:26.604Z,39.80
2018-04-28T17:57:54.306Z,39.70
2018-04-28T18:00:21.848Z,40.10
2018-04-28T18:02:49.474Z,40.60
2018-04-28T18:05:16.999Z,40.80
2018-04-28T18:07:44.568Z,40.40
2018-04-28T18:10:12.877Z,41.50
2018-04-28T18:12:41.268Z,41.50
2018-04-28T18:15:09.263Z,42.80
2018-04-28T18:17:36.878Z,43.60
2018-04-28T18:20:04.416Z,43.80
2018-04-28T18:22:31.984Z,44.30
2018-04-28T18:24:59.604Z,43.50
2018-04-28T18:27:28.320Z,43.80
2018-04-28T18:29:55.856Z,43.80
2018-04-28T18:32:23.424Z,44.80
2018-04-28T18:34:51.733Z,45.40
2018-04-28T18:37:19.296Z,45.50
2018-04-28T18:39:46.840Z,46.20
2018-04-28T18:42:14.408Z,45.00
2018-04-28T18:44:41.948Z,44.40
2018-04-28T18:47:10.291Z,46.60
2018-04-28T18:49:37.832Z,46.50
2018-04-28T18:52:05.429Z,47.80
2018-04-28T18:54:32.972Z,47.20
2018-04-28T18:57:00.539Z,45.10
2018-04-28T18:59:28.848Z,44.80
2018-04-28T19:01:56.420Z,44.70
2018-04-28T19:04:23.960Z,45.10
2018-04-28T19:06:51.530Z,45.80
2018-04-28T19:09:19.072Z,47.50
2018-04-28T19:11:46.640Z,47.00
2018-04-28T19:14:14.205Z,48.20
2018-04-28T19:16:41.787Z,47.50
2018-04-28T19:19:09.342Z,47.00
2018-04-28T19:21:36.892Z,45.50
2018-04-28T19:24:04.461Z,45.90
2018-04-28T19:26:32.772Z,47.20
2018-04-28T19:29:00.385Z,47.20
2018-04-28T19:31:27.924Z,48.10
2018-04-28T19:33:55.500Z,47.40
2018-04-28T19:36:23.050Z,47.20
2018-04-28T19:38:50.762Z,47.00
2018-04-28T19:41:18.302Z,47.60
2018-04-28T19:43:45.871Z,48.00
2018-04-28T19:46:13.412Z,48.00
2018-04-28T19:48:41.054Z,48.10
2018-04-28T19:51:08.536Z,49.50
2018-04-28T19:53:36.105Z,48.90
2018-04-28T19:56:03.643Z,48.80
2018-04-28T19:58:31.212Z,48.80
2018-04-28T20:00:58.752Z,50.10
2018-04-28T20:03:26.317Z,49.90
2018-04-28T20:05:53.869Z,48.70
2018-04-28T20:08:21.437Z,47.70
2018-04-28T20:10:48.978Z,49.60
2018-04-28T20:13:16.545Z,48.10
2018-04-28T20:15:44.088Z,50.30
2018-04-28T20:18:11.657Z,49.80
2018-04-28T20:20:39.200Z,47.60
2018-04-28T20:23:18.483Z,50.80
2018-04-28T20:25:46.793Z,49.30
2018-04-28T20:28:15.128Z,47.10
2018-04-28T20:30:42.672Z,47.00
2018-04-28T20:33:10.239Z,48.60
2018-04-28T20:35:37.784Z,50.60
2018-04-28T20:38:05.492Z,48.70
2018-04-28T20:40:33.037Z,47.70
2018-04-28T20:43:00.613Z,48.00
2018-04-28T20:45:28.172Z,48.30
2018-04-28T20:47:56.508Z,49.50
2018-04-28T20:50:24.060Z,49.90
2018-04-28T20:52:51.816Z,50.40
2018-04-28T20:55:19.357Z,50.90
2018-04-28T20:57:46.904Z,50.10
2018-04-28T21:00:14.472Z,51.70
2018-04-28T21:02:42.016Z,51.50
2018-04-28T21:05:09.584Z,51.50
2018-04-28T21:07:37.128Z,52.70
2018-04-28T21:10:05.464Z,53.20
2018-04-28T21:12:33.009Z,53.00
2018-04-28T21:15:00.580Z,53.50
2018-04-28T21:17:28.120Z,52.80
2018-04-28T21:19:55.688Z,56.60
2018-04-28T21:22:23.235Z,56.70
2018-04-28T21:24:50.799Z,57.60
2018-04-28T21:27:18.358Z,57.80
2018-04-28T21:29:45.927Z,55.30
2018-04-28T21:32:13.477Z,55.20
2018-04-28T21:34:41.040Z,55.60
2018-04-28T21:37:08.742Z,53.60
2018-04-28T21:39:36.304Z,56.50
2018-04-28T21:42:04.616Z,57.10
2018-04-28T21:44:32.180Z,57.00
2018-04-28T21:46:59.720Z,57.80
2018-04-28T21:49:27.287Z,56.40
2018-04-28T21:51:54.837Z,58.40
2018-04-28T21:54:22.423Z,55.90
2018-04-28T21:56:49.966Z,56.40
2018-04-28T21:59:17.533Z,57.90
2018-04-28T22:01:45.077Z,60.00
2018-04-28T22:04:12.645Z,55.60
2018-04-28T22:06:40.196Z,61.10
2018-04-28T22:09:07.761Z,57.10
2018-04-28T22:11:35.312Z,55.30
2018-04-28T22:14:02.876Z,59.80
2018-04-28T22:16:30.427Z,57.70
2018-04-28T22:18:58.006Z,58.00
2018-04-28T22:21:25.770Z,57.20
2018-04-28T22:23:53.345Z,56.80
2018-04-28T22:26:21.656Z,58.80
2018-04-28T22:28:49.197Z,58.70
2018-04-28T22:31:16.764Z,60.00
2018-04-28T22:33:44.304Z,59.80
2018-04-28T22:36:11.869Z,59.90
2018-04-28T22:38:40.173Z,58.90
2018-04-28T22:41:08.509Z,60.00
2018-04-28T22:43:36.193Z,59.90
2018-04-28T22:46:03.761Z,60.50
2018-04-28T22:48:31.304Z,60.90
2018-04-28T22:50:59.632Z,56.40
2018-04-28T22:53:27.172Z,56.30
2018-04-28T22:55:54.736Z,57.20
2018-04-28T22:58:23.044Z,56.70
2018-04-28T23:00:50.612Z,56.60
2018-04-28T23:03:18.154Z,58.30
2018-04-28T23:05:45.819Z,60.60
2018-04-28T23:08:13.360Z,58.20
2018-04-28T23:10:40.924Z,61.40
2018-04-28T23:13:08.470Z,56.80
2018-04-28T23:15:36.808Z,58.30
2018-04-28T23:18:04.352Z,58.30
2018-04-28T23:20:31.916Z,60.80
2018-04-28T23:22:59.460Z,60.40
2018-04-28T23:25:27.024Z,61.30
2018-04-28T23:27:54.572Z,63.60
2018-04-28T23:30:22.135Z,61.20
2018-04-28T23:32:49.675Z,66.20
2018-04-28T23:35:17.243Z,62.10
2018-04-28T23:37:44.780Z,65.30
2018-04-28T23:40:12.348Z,61.20
2018-04-28T23:42:39.890Z,60.50
2018-04-28T23:45:07.455Z,63.80
2018-04-28T23:47:35.002Z,62.90
2018-04-28T23:50:03.331Z,62.70
2018-04-28T23:52:30.880Z,62.70
2018-04-28T23:54:58.453Z,62.10
2018-04-28T23:57:26.764Z,60.50
2018-04-28T23:59:54.308Z,60.50
